Time;durP1;ratioP1;P1;durP2;ratioP2;P2;SDS_P1;SDS_P2;PMS_P1;PMS_P2;Temp;Humidity;BMP_temperature;BMP_pressure;BME280_temperature;BME280_humidity;BME280_pressure;Samples;Min_cycle;Max_cycle;Signal;HPM_P1;HPM_P2
2022/09/29 00:01:30;;;;;;;10.63;7.85;;;7.20;99.90;;;;;;4959681;28;20407;-58
2022/09/29 00:03:56;;;;;;;9.75;7.80;;;7.20;99.90;;;;;;4953160;28;20593;-58
2022/09/29 00:06:22;;;;;;;8.05;7.28;;;7.10;99.90;;;;;;4962695;28;20566;-59
2022/09/29 00:08:48;;;;;;;7.82;7.03;;;7.10;99.90;;;;;;4952412;28;20042;-59
2022/09/29 00:11:16;;;;;;;9.15;7.40;;;7.10;99.90;;;;;;4954719;28;20074;-59
2022/09/29 00:13:42;;;;;;;8.43;7.22;;;7.00;99.90;;;;;;4956034;28;20027;-59
2022/09/29 00:16:08;;;;;;;8.05;6.43;;;7.20;99.90;;;;;;4956776;28;20599;-59
2022/09/29 00:18:34;;;;;;;7.85;7.05;;;7.10;99.90;;;;;;4955078;28;20027;-59
2022/09/29 00:21:06;;;;;;;8.30;6.68;;;7.10;99.90;;;;;;4953758;28;20104;-59
2022/09/29 00:23:33;;;;;;;9.68;6.45;;;7.20;99.90;;;;;;4953867;28;21101;-59
2022/09/29 00:26:11;;;;;;;6.13;5.53;;;7.00;99.90;;;;;;4957146;28;20088;-59
2022/09/29 00:28:38;;;;;;;7.93;6.32;;;6.90;99.90;;;;;;4959666;28;20039;-59
2022/09/29 00:31:06;;;;;;;6.50;5.90;;;7.20;99.90;;;;;;4957612;28;20043;-60
2022/09/29 00:33:33;;;;;;;8.75;6.20;;;7.00;99.90;;;;;;4958419;28;20584;-59
2022/09/29 00:36:02;;;;;;;9.50;6.95;;;6.90;99.90;;;;;;4953519;28;20833;-59
2022/09/29 00:38:28;;;;;;;8.10;7.22;;;7.10;99.90;;;;;;4962282;28;20122;-59
2022/09/29 00:40:54;;;;;;;9.30;7.50;;;7.00;99.90;;;;;;4957874;28;20039;-59
2022/09/29 00:43:43;;;;;;;10.27;8.35;;;6.90;99.90;;;;;;4955077;28;20031;-58
2022/09/29 00:46:11;;;;;;;9.18;7.95;;;7.00;99.90;;;;;;4951883;28;20407;-59
2022/09/29 00:48:38;;;;;;;8.90;7.50;;;6.90;99.90;;;;;;4957468;28;20034;-59
2022/09/29 00:51:04;;;;;;;9.40;7.30;;;6.80;99.90;;;;;;4953649;28;20663;-58
2022/09/29 00:53:30;;;;;;;10.50;7.68;;;6.90;99.90;;;;;;4966541;28;20046;-59
2022/09/29 00:56:01;;;;;;;9.77;7.85;;;6.80;99.90;;;;;;4949452;28;20031;-59
2022/09/29 00:58:32;;;;;;;13.40;9.45;;;6.70;99.90;;;;;;4953364;28;20119;-57
2022/09/29 01:00:58;;;;;;;9.75;7.72;;;6.70;99.90;;;;;;4962105;28;20039;-59
2022/09/29 01:03:32;;;;;;;11.85;9.75;;;6.70;99.90;;;;;;4957202;28;20054;-59
2022/09/29 01:06:01;;;;;;;16.58;9.48;;;6.70;99.90;;;;;;4958422;28;20102;-59
2022/09/29 01:08:38;;;;;;;14.95;9.63;;;6.70;99.90;;;;;;4954499;28;20046;-59
2022/09/29 01:11:05;;;;;;;12.48;9.35;;;6.70;99.90;;;;;;4952060;28;20050;-59
2022/09/29 01:13:32;;;;;;;10.30;8.57;;;6.70;99.90;;;;;;4957452;28;20034;-59
2022/09/29 01:15:57;;;;;;;15.73;8.23;;;6.90;99.90;;;;;;4955673;28;20047;-59
2022/09/29 01:18:24;;;;;;;10.57;8.50;;;7.00;99.90;;;;;;4958270;28;20039;-59
2022/09/29 01:21:14;;;;;;;10.07;8.35;;;6.90;99.90;;;;;;4953249;28;20097;-59
2022/09/29 01:23:49;;;;;;;12.55;9.60;;;7.00;99.90;;;;;;4944751;28;20093;-59
2022/09/29 01:26:34;;;;;;;13.38;9.73;;;7.00;99.90;;;;;;4954015;28;20027;-59
2022/09/29 01:29:21;;;;;;;14.00;9.88;;;6.80;99.90;;;;;;4955606;28;20490;-59
2022/09/29 01:31:58;;;;;;;14.25;10.13;;;6.70;99.90;;;;;;4954753;28;20125;-59
2022/09/29 01:34:51;;;;;;;13.25;9.70;;;6.70;99.90;;;;;;4953488;28;20043;-59
2022/09/29 01:37:33;;;;;;;14.77;10.27;;;6.80;99.90;;;;;;4957086;28;20035;-59
2022/09/29 01:40:14;;;;;;;12.88;10.25;;;6.80;99.90;;;;;;4957088;28;20097;-59
2022/09/29 01:42:53;;;;;;;11.43;9.15;;;6.70;99.90;;;;;;4957498;28;20042;-59
2022/09/29 01:46:17;;;;;;;14.55;9.57;;;6.70;99.90;;;;;;4956930;28;20042;-59
2022/09/29 01:48:49;;;;;;;11.90;9.07;;;6.70;99.90;;;;;;4896881;29;20143;-59
2022/09/29 01:51:20;;;;;;;12.25;9.73;;;6.70;99.90;;;;;;4959734;28;20471;-59
2022/09/29 01:53:53;;;;;;;14.60;10.60;;;6.80;99.90;;;;;;4962767;28;20511;-59
2022/09/29 01:56:35;;;;;;;12.10;9.45;;;6.90;99.90;;;;;;4954682;28;20047;-60
2022/09/29 01:59:13;;;;;;;11.48;9.18;;;6.70;99.90;;;;;;4954713;28;20507;-59
2022/09/29 02:01:42;;;;;;;11.52;9.48;;;6.70;99.90;;;;;;4960810;28;20060;-59
2022/09/29 02:04:15;;;;;;;12.30;8.88;;;6.70;99.90;;;;;;4955080;28;20511;-60
2022/09/29 02:07:05;;;;;;;11.57;8.93;;;6.70;99.90;;;;;;4963708;28;20124;-60
2022/09/29 02:09:37;;;;;;;12.27;9.20;;;6.70;99.90;;;;;;4955733;28;20123;-59
2022/09/29 02:12:06;;;;;;;10.27;7.63;;;6.80;99.90;;;;;;4962323;28;20569;-59
2022/09/29 02:14:37;;;;;;;11.73;9.20;;;6.70;99.90;;;;;;4962768;28;20026;-59
2022/09/29 02:17:20;;;;;;;11.88;9.20;;;6.70;99.90;;;;;;4961055;28;20066;-59
2022/09/29 02:19:48;;;;;;;12.02;8.80;;;6.60;99.90;;;;;;4958712;28;20652;-59
2022/09/29 02:22:14;;;;;;;10.27;8.48;;;6.70;99.90;;;;;;4957029;28;20037;-59
2022/09/29 02:24:40;;;;;;;12.95;9.13;;;6.60;99.90;;;;;;4963065;28;20047;-60
2022/09/29 02:27:06;;;;;;;11.02;9.10;;;6.70;99.90;;;;;;4956671;28;20518;-60
2022/09/29 02:29:33;;;;;;;10.20;8.43;;;6.70;99.90;;;;;;4957751;28;20051;-59
2022/09/29 02:32:01;;;;;;;10.48;8.10;;;6.70;99.90;;;;;;4959505;28;20043;-59
2022/09/29 02:34:31;;;;;;;13.18;8.88;;;6.60;99.90;;;;;;4955201;28;20118;-60
2022/09/29 02:37:18;;;;;;;9.40;7.82;;;6.60;99.90;;;;;;4957016;28;20129;-59
2022/09/29 02:40:09;;;;;;;8.93;7.70;;;6.70;99.90;;;;;;4954826;28;20428;-59
2022/09/29 02:42:55;;;;;;;10.98;8.65;;;6.60;99.90;;;;;;4955991;28;20639;-60
2022/09/29 02:45:45;;;;;;;10.05;7.80;;;6.50;99.90;;;;;;4957182;28;20519;-59
2022/09/29 02:48:22;;;;;;;8.85;7.40;;;6.50;99.90;;;;;;4953806;28;20031;-60
2022/09/29 02:51:03;;;;;;;11.55;7.85;;;6.50;99.90;;;;;;4958238;28;20549;-59
2022/09/29 02:54:01;;;;;;;8.95;7.28;;;6.50;99.90;;;;;;4960240;28;20042;-60
2022/09/29 02:56:40;;;;;;;10.57;7.88;;;6.60;99.90;;;;;;4957080;28;20038;-59
2022/09/29 02:59:37;;;;;;;9.55;8.00;;;6.50;99.90;;;;;;4954196;28;20042;-59
2022/09/29 03:02:03;;;;;;;9.63;7.68;;;6.40;99.90;;;;;;4958734;28;20034;-60
2022/09/29 03:04:29;;;;;;;11.73;7.60;;;6.40;99.90;;;;;;4960248;28;20049;-59
2022/09/29 03:06:54;;;;;;;8.88;7.97;;;6.40;99.90;;;;;;4958427;28;20049;-59
2022/09/29 03:09:20;;;;;;;9.98;8.23;;;6.30;99.90;;;;;;4955803;28;20328;-59
2022/09/29 03:11:46;;;;;;;10.38;8.07;;;6.30;99.90;;;;;;4958093;28;20031;-59
2022/09/29 03:14:11;;;;;;;10.23;8.40;;;6.40;99.90;;;;;;4957578;28;20746;-59
2022/09/29 03:16:38;;;;;;;12.73;9.70;;;6.30;99.90;;;;;;4958148;28;20038;-59
2022/09/29 03:19:04;;;;;;;11.65;8.88;;;6.30;99.90;;;;;;4960568;28;21110;-59
2022/09/29 03:21:31;;;;;;;11.55;8.55;;;6.40;99.90;;;;;;4960444;28;20095;-59
2022/09/29 03:23:56;;;;;;;19.40;12.63;;;6.30;99.90;;;;;;4959659;28;20395;-59
2022/09/29 03:26:22;;;;;;;12.95;9.65;;;6.30;99.90;;;;;;4959661;28;20543;-58
2022/09/29 03:28:52;;;;;;;11.10;8.55;;;6.10;99.90;;;;;;4961583;28;20061;-59
2022/09/29 03:31:18;;;;;;;17.63;11.23;;;6.10;99.90;;;;;;4960457;28;20059;-60
2022/09/29 03:33:44;;;;;;;16.45;10.32;;;6.20;99.90;;;;;;4967866;28;20027;-59
2022/09/29 03:36:10;;;;;;;11.73;8.40;;;6.20;99.90;;;;;;4957465;28;20054;-58
2022/09/29 03:38:37;;;;;;;17.40;11.40;;;6.20;99.90;;;;;;4953246;28;20031;-59
2022/09/29 03:41:03;;;;;;;17.17;11.05;;;6.20;99.90;;;;;;4951805;28;20784;-59
2022/09/29 03:43:29;;;;;;;24.75;14.48;;;6.10;99.90;;;;;;4960736;28;20664;-59
2022/09/29 03:45:55;;;;;;;28.25;15.70;;;6.20;99.90;;;;;;4954905;28;20034;-59
2022/09/29 03:48:22;;;;;;;19.27;12.60;;;6.20;99.90;;;;;;4957300;28;20109;-59
2022/09/29 03:50:49;;;;;;;17.42;11.63;;;6.20;99.90;;;;;;4957570;28;20035;-59
2022/09/29 03:53:15;;;;;;;14.30;9.32;;;6.10;99.90;;;;;;4954037;28;20034;-58
2022/09/29 03:55:44;;;;;;;13.30;9.00;;;6.10;99.90;;;;;;4957246;28;20041;-59
2022/09/29 03:58:10;;;;;;;11.75;8.38;;;6.10;99.90;;;;;;4955916;28;20043;-59
2022/09/29 04:00:35;;;;;;;11.63;8.90;;;6.20;99.90;;;;;;4954551;28;20092;-59
2022/09/29 04:03:01;;;;;;;12.25;8.95;;;6.10;99.90;;;;;;4956935;28;20490;-59
2022/09/29 04:05:27;;;;;;;11.23;8.40;;;6.20;99.90;;;;;;4957663;28;20311;-59
2022/09/29 04:07:53;;;;;;;13.38;8.80;;;6.20;99.90;;;;;;4958024;28;20153;-58
2022/09/29 04:10:19;;;;;;;11.88;9.05;;;6.20;99.90;;;;;;4958947;28;20823;-60
2022/09/29 04:12:44;;;;;;;12.23;9.07;;;6.10;99.90;;;;;;4956718;28;20462;-59
2022/09/29 04:15:10;;;;;;;11.70;8.73;;;6.20;99.90;;;;;;4959795;28;20035;-60
2022/09/29 04:17:35;;;;;;;16.10;10.75;;;6.20;99.90;;;;;;4958054;28;20035;-59
2022/09/29 04:20:01;;;;;;;19.67;12.77;;;6.30;99.90;;;;;;4957090;28;20176;-58
2022/09/29 04:22:26;;;;;;;21.20;11.70;;;6.20;99.90;;;;;;4958780;28;20125;-58
2022/09/29 04:24:52;;;;;;;99.85;44.33;;;6.30;99.90;;;;;;4954703;28;20494;-59
2022/09/29 04:27:18;;;;;;;132.02;59.47;;;6.40;99.90;;;;;;4954265;28;20035;-60
2022/09/29 04:29:44;;;;;;;66.40;32.05;;;6.30;99.90;;;;;;4956289;28;20162;-59
2022/09/29 04:32:10;;;;;;;87.15;43.05;;;6.20;99.90;;;;;;4954696;28;20049;-59
2022/09/29 04:34:35;;;;;;;63.28;32.15;;;6.30;99.90;;;;;;4953563;28;20130;-58
2022/09/29 04:37:01;;;;;;;26.40;15.55;;;6.20;99.90;;;;;;4960216;28;20043;-59
2022/09/29 04:39:27;;;;;;;24.27;15.02;;;6.20;99.90;;;;;;4949454;28;20186;-59
2022/09/29 04:41:52;;;;;;;18.55;12.13;;;6.20;99.90;;;;;;4955016;28;20039;-59
2022/09/29 04:44:23;;;;;;;17.85;12.10;;;6.30;99.90;;;;;;4956427;28;20043;-60
2022/09/29 04:46:50;;;;;;;17.80;10.60;;;6.30;99.90;;;;;;4956934;28;20729;-59
2022/09/29 04:49:17;;;;;;;15.65;10.05;;;6.30;99.90;;;;;;4958450;28;20455;-59
2022/09/29 04:51:42;;;;;;;12.82;9.48;;;6.30;99.90;;;;;;4951015;28;20039;-59
2022/09/29 04:54:08;;;;;;;12.93;9.57;;;6.30;99.90;;;;;;4945276;28;20041;-59
2022/09/29 04:56:33;;;;;;;12.77;9.23;;;6.40;99.90;;;;;;4956571;28;20455;-59
2022/09/29 04:58:59;;;;;;;15.75;10.05;;;6.40;99.90;;;;;;4954327;28;20031;-59
2022/09/29 05:01:25;;;;;;;12.27;8.90;;;6.30;99.90;;;;;;4955888;28;20113;-59
2022/09/29 05:03:51;;;;;;;23.60;13.02;;;6.30;99.90;;;;;;4954468;28;20102;-59
2022/09/29 05:06:17;;;;;;;22.00;13.07;;;6.30;99.90;;;;;;4953321;28;20499;-60
2022/09/29 05:08:42;;;;;;;140.50;61.15;;;6.40;99.90;;;;;;4957102;28;20039;-59
2022/09/29 05:11:09;;;;;;;247.88;103.97;;;6.50;99.90;;;;;;4946655;28;20121;-59
2022/09/29 05:13:36;;;;;;;211.32;92.20;;;6.40;99.90;;;;;;4952216;28;20046;-59
2022/09/29 05:16:02;;;;;;;137.63;61.35;;;6.40;99.90;;;;;;4958147;28;20043;-59
2022/09/29 05:18:29;;;;;;;73.53;34.67;;;6.30;99.90;;;;;;4956453;28;20163;-57
2022/09/29 05:20:54;;;;;;;49.20;25.55;;;6.40;99.90;;;;;;4954495;28;20038;-58
2022/09/29 05:23:20;;;;;;;38.60;20.55;;;6.30;99.90;;;;;;4961739;28;20030;-59
2022/09/29 05:25:46;;;;;;;39.60;20.60;;;6.30;99.90;;;;;;4961824;28;20182;-59
2022/09/29 05:28:13;;;;;;;26.75;15.88;;;6.30;99.90;;;;;;4956983;28;20031;-59
2022/09/29 05:30:40;;;;;;;21.42;13.68;;;6.50;99.90;;;;;;4960720;28;20566;-58
2022/09/29 05:33:06;;;;;;;19.10;12.13;;;6.50;99.90;;;;;;4955999;28;20386;-59
2022/09/29 05:35:31;;;;;;;19.58;13.02;;;6.40;99.90;;;;;;4959894;28;20045;-59
2022/09/29 05:37:57;;;;;;;22.02;14.57;;;6.50;99.90;;;;;;4961286;28;20038;-59
2022/09/29 05:40:25;;;;;;;20.70;12.85;;;6.40;99.90;;;;;;4952031;28;20031;-58
2022/09/29 05:42:51;;;;;;;19.58;12.00;;;6.50;99.90;;;;;;4958048;28;20145;-59
2022/09/29 05:45:17;;;;;;;21.15;12.82;;;6.60;99.90;;;;;;4964083;28;20621;-58
2022/09/29 05:47:44;;;;;;;25.83;13.48;;;6.60;99.90;;;;;;4955832;28;20193;-58
2022/09/29 05:50:10;;;;;;;50.20;33.58;;;6.50;99.90;;;;;;4960840;28;20049;-59
2022/09/29 05:52:37;;;;;;;31.77;21.27;;;6.60;99.90;;;;;;4961917;28;20452;-58
2022/09/29 05:55:03;;;;;;;24.83;15.48;;;6.50;99.90;;;;;;4956020;28;20054;-57
2022/09/29 05:57:29;;;;;;;22.23;13.38;;;6.50;99.90;;;;;;4962269;28;20137;-58
2022/09/29 05:59:54;;;;;;;18.83;12.50;;;6.60;99.90;;;;;;4957692;28;20027;-58
2022/09/29 06:02:21;;;;;;;20.13;11.85;;;6.60;99.90;;;;;;4955189;28;20095;-58
2022/09/29 06:04:46;;;;;;;12.98;9.98;;;6.60;99.90;;;;;;4955363;28;20031;-59
2022/09/29 06:07:12;;;;;;;15.80;10.70;;;6.70;99.90;;;;;;4952273;28;20123;-58
2022/09/29 06:09:38;;;;;;;14.15;10.00;;;6.70;99.90;;;;;;4955497;28;20330;-58
2022/09/29 06:12:03;;;;;;;15.23;10.63;;;6.80;99.90;;;;;;4958082;28;20133;-58
2022/09/29 06:14:29;;;;;;;16.77;12.13;;;6.80;99.90;;;;;;4958614;28;20159;-58
2022/09/29 06:16:54;;;;;;;17.23;12.25;;;6.90;99.90;;;;;;4963276;28;20038;-57
2022/09/29 06:19:20;;;;;;;14.82;11.25;;;7.00;99.90;;;;;;4955957;28;20039;-58
2022/09/29 06:21:46;;;;;;;16.27;11.82;;;7.00;99.90;;;;;;4950463;28;20082;-58
2022/09/29 06:24:11;;;;;;;25.30;15.32;;;7.00;99.90;;;;;;4956753;28;20132;-57
2022/09/29 06:26:37;;;;;;;45.72;25.20;;;7.20;99.90;;;;;;4957034;28;20055;-58
2022/09/29 06:29:03;;;;;;;44.72;25.38;;;7.10;99.90;;;;;;4958157;28;20028;-58
2022/09/29 06:31:30;;;;;;;42.47;25.42;;;7.30;99.90;;;;;;4958739;28;20484;-58
2022/09/29 06:33:58;;;;;;;34.45;22.30;;;7.30;99.90;;;;;;4957471;28;20035;-58
2022/09/29 06:39:16;;;;;;;29.05;18.27;;;7.30;99.90;;;;;;4952763;28;20109;-58
2022/09/29 06:41:47;;;;;;;24.00;16.58;;;7.40;99.90;;;;;;4958777;28;20461;-58
2022/09/29 06:44:13;;;;;;;24.08;16.45;;;7.50;99.90;;;;;;4952490;28;20134;-58
2022/09/29 06:46:39;;;;;;;23.70;17.63;;;7.50;99.90;;;;;;4956442;28;20037;-58
2022/09/29 06:49:05;;;;;;;20.25;16.02;;;7.60;99.90;;;;;;4958216;28;20035;-58
2022/09/29 06:51:31;;;;;;;18.88;15.40;;;7.70;99.90;;;;;;4958795;28;20033;-58
2022/09/29 06:53:56;;;;;;;21.05;15.90;;;7.70;99.90;;;;;;4957529;28;20097;-59
2022/09/29 06:56:22;;;;;;;20.52;15.52;;;7.90;99.90;;;;;;4957020;28;20035;-59
2022/09/29 06:58:48;;;;;;;21.73;15.85;;;7.90;99.90;;;;;;4957999;28;20359;-58
2022/09/29 07:01:13;;;;;;;20.83;15.88;;;8.00;99.90;;;;;;4954700;28;20043;-58
2022/09/29 07:03:39;;;;;;;18.50;15.13;;;8.00;99.90;;;;;;4957677;28;20027;-57
2022/09/29 07:06:07;;;;;;;21.70;16.52;;;8.10;99.90;;;;;;4950908;28;20043;-58
2022/09/29 07:08:35;;;;;;;19.77;15.18;;;8.20;99.90;;;;;;4957718;28;20446;-58
2022/09/29 07:11:04;;;;;;;20.67;15.68;;;8.20;99.90;;;;;;4959051;28;20042;-59
2022/09/29 07:13:30;;;;;;;22.45;16.30;;;7.80;99.90;;;;;;4959219;28;20051;-57
2022/09/29 07:16:01;;;;;;;20.88;17.30;;;8.40;99.90;;;;;;4957371;28;20346;-59
2022/09/29 07:18:27;;;;;;;24.92;17.50;;;8.40;99.90;;;;;;4957819;28;20145;-57
2022/09/29 07:20:55;;;;;;;23.55;17.30;;;8.50;99.90;;;;;;4958041;28;20112;-58
2022/09/29 07:23:20;;;;;;;25.02;18.65;;;8.60;99.90;;;;;;4961274;28;20106;-59
2022/09/29 07:25:46;;;;;;;31.95;18.80;;;8.70;99.90;;;;;;4958052;28;20420;-58
2022/09/29 07:28:11;;;;;;;24.05;18.08;;;8.80;99.90;;;;;;4958067;28;20053;-57
2022/09/29 07:30:38;;;;;;;23.35;18.17;;;8.80;99.90;;;;;;4957227;28;20133;-59
2022/09/29 07:33:03;;;;;;;24.85;19.15;;;8.90;99.90;;;;;;4959111;28;20356;-59
2022/09/29 07:35:29;;;;;;;29.88;19.50;;;9.10;99.90;;;;;;4958323;28;20097;-59
2022/09/29 07:37:55;;;;;;;23.70;19.38;;;9.20;99.90;;;;;;4958726;28;20066;-58
2022/09/29 07:40:23;;;;;;;25.40;19.50;;;9.30;99.90;;;;;;4956140;28;20375;-58
2022/09/29 07:42:49;;;;;;;26.27;19.25;;;9.20;99.90;;;;;;4961267;28;20384;-58
2022/09/29 07:45:16;;;;;;;26.25;20.13;;;9.20;99.90;;;;;;4955231;28;20133;-57
2022/09/29 07:47:42;;;;;;;25.90;19.38;;;9.30;99.90;;;;;;4953865;28;20122;-58
2022/09/29 07:50:07;;;;;;;25.75;20.10;;;9.40;99.90;;;;;;4957577;28;20146;-58
2022/09/29 07:52:33;;;;;;;24.65;19.00;;;9.30;99.90;;;;;;4961132;28;20043;-58
2022/09/29 07:54:59;;;;;;;29.55;19.83;;;9.40;99.90;;;;;;4954430;28;20039;-58
2022/09/29 07:57:24;;;;;;;22.65;18.85;;;9.40;99.90;;;;;;4950297;28;20403;-58
2022/09/29 07:59:50;;;;;;;23.60;17.70;;;9.50;99.90;;;;;;4954773;28;20059;-58
2022/09/29 08:02:16;;;;;;;25.20;19.23;;;9.50;99.90;;;;;;4958260;28;20123;-58
2022/09/29 08:04:42;;;;;;;23.80;18.80;;;9.70;99.90;;;;;;4954201;28;20077;-58
2022/09/29 08:07:08;;;;;;;22.70;17.38;;;9.70;99.90;;;;;;4954488;28;20637;-59
2022/09/29 08:09:34;;;;;;;23.45;19.00;;;9.80;99.90;;;;;;4959685;28;20042;-58
2022/09/29 08:11:59;;;;;;;24.77;18.98;;;9.80;99.90;;;;;;4956477;28;20475;-59
2022/09/29 08:14:25;;;;;;;32.40;20.08;;;9.90;99.90;;;;;;4953314;28;20035;-58
2022/09/29 08:16:50;;;;;;;23.00;18.80;;;10.00;99.90;;;;;;4959791;28;20056;-59
2022/09/29 08:19:16;;;;;;;22.25;17.73;;;10.00;99.90;;;;;;4954373;28;20026;-59
2022/09/29 08:21:42;;;;;;;24.10;17.95;;;10.10;99.90;;;;;;4959022;28;20130;-58
2022/09/29 08:24:08;;;;;;;24.33;18.60;;;10.10;99.90;;;;;;4956360;28;20053;-58
2022/09/29 08:26:36;;;;;;;24.20;18.15;;;10.10;99.90;;;;;;4960882;28;20031;-58
2022/09/29 08:29:02;;;;;;;25.90;18.30;;;10.30;99.90;;;;;;4957280;28;20426;-58
2022/09/29 08:31:28;;;;;;;26.75;18.73;;;10.30;99.90;;;;;;4959144;28;20707;-58
2022/09/29 08:33:57;;;;;;;29.50;20.33;;;10.30;99.90;;;;;;4960607;28;20368;-58
2022/09/29 08:36:23;;;;;;;724.78;575.22;;;10.50;99.90;;;;;;4958390;28;20034;-59
2022/09/29 08:38:51;;;;;;;31.50;23.20;;;10.60;99.90;;;;;;4957439;28;20042;-58
2022/09/29 08:41:36;;;;;;;29.23;21.70;;;10.70;99.90;;;;;;4949740;28;20046;-59
2022/09/29 08:44:31;;;;;;;28.92;19.80;;;10.80;99.90;;;;;;4955407;28;20113;-58
2022/09/29 08:47:20;;;;;;;27.17;18.85;;;10.80;99.90;;;;;;4947271;28;20030;-59
2022/09/29 08:50:05;;;;;;;24.33;19.02;;;10.90;99.90;;;;;;4955834;28;20708;-58
2022/09/29 08:52:39;;;;;;;23.40;18.77;;;10.90;99.90;;;;;;4953072;28;20588;-59
2022/09/29 08:55:16;;;;;;;27.33;18.75;;;11.00;99.90;;;;;;4956564;28;20109;-59
2022/09/29 08:57:43;;;;;;;24.83;16.40;;;11.00;99.90;;;;;;4958384;28;20036;-58
2022/09/29 09:00:15;;;;;;;23.90;18.90;;;11.00;99.90;;;;;;4961317;28;20580;-58
2022/09/29 09:02:52;;;;;;;41.00;27.98;;;11.10;99.90;;;;;;4961029;28;20058;-59
2022/09/29 09:05:36;;;;;;;24.05;18.65;;;11.30;99.90;;;;;;4962174;28;20583;-58
2022/09/29 09:08:04;;;;;;;;;;;11.30;99.90;;;;;;4959181;28;20471;-58
2022/09/29 09:11:07;;;;;;;25.70;17.92;;;11.40;99.90;;;;;;4958119;28;19922;-59
2022/09/29 09:13:52;;;;;;;19.60;13.73;;;11.30;99.90;;;;;;4946649;28;20478;-59
2022/09/29 09:16:46;;;;;;;27.02;16.67;;;11.30;99.90;;;;;;4965956;28;20443;-59
2022/09/29 09:19:35;;;;;;;18.27;14.65;;;11.40;99.90;;;;;;4959832;28;20105;-58
2022/09/29 09:22:40;;;;;;;20.38;14.80;;;11.40;99.90;;;;;;4958811;28;20073;-59
2022/09/29 09:25:19;;;;;;;27.27;16.80;;;11.60;99.90;;;;;;4955151;28;20095;-58
2022/09/29 09:27:52;;;;;;;21.45;16.60;;;11.70;99.90;;;;;;4964087;28;20110;-58
2022/09/29 09:30:19;;;;;;;20.42;14.98;;;11.70;99.90;;;;;;4963484;28;20062;-58
2022/09/29 09:32:50;;;;;;;21.92;15.45;;;11.60;99.90;;;;;;4961618;28;20121;-58
2022/09/29 09:35:40;;;;;;;21.10;15.27;;;11.80;99.90;;;;;;4957481;28;20137;-58
2022/09/29 09:38:15;;;;;;;19.80;14.98;;;11.80;99.90;;;;;;4962421;28;20185;-58
2022/09/29 09:40:45;;;;;;;18.05;12.48;;;11.70;99.90;;;;;;4965074;28;20114;-57
2022/09/29 09:43:41;;;;;;;18.17;12.25;;;11.80;99.90;;;;;;4957391;28;20035;-59
2022/09/29 09:46:40;;;;;;;16.67;12.23;;;11.90;99.90;;;;;;4960565;28;20493;-59
2022/09/29 09:49:54;;;;;;;15.35;11.80;;;12.00;99.90;;;;;;4953167;28;20054;-59
2022/09/29 09:52:38;;;;;;;18.77;13.27;;;12.10;99.90;;;;;;4936183;28;20518;-59
2022/09/29 09:55:05;;;;;;;17.70;12.00;;;11.80;99.90;;;;;;4958864;28;20129;-60
2022/09/29 09:57:51;;;;;;;13.07;9.38;;;12.00;99.90;;;;;;4959292;28;20051;-59
2022/09/29 10:00:22;;;;;;;11.73;8.70;;;12.10;99.90;;;;;;4963149;28;20042;-58
2022/09/29 10:02:50;;;;;;;16.58;10.80;;;12.10;99.90;;;;;;4952246;28;20031;-59
2022/09/29 10:05:18;;;;;;;15.60;10.82;;;12.10;99.90;;;;;;4961179;28;20062;-59
2022/09/29 10:07:45;;;;;;;14.65;9.30;;;12.00;99.90;;;;;;4956856;28;20384;-59
2022/09/29 10:10:20;;;;;;;12.90;7.50;;;12.20;99.90;;;;;;4963147;28;20114;-58
2022/09/29 10:12:52;;;;;;;14.68;8.00;;;12.20;99.90;;;;;;4960038;28;20424;-59
2022/09/29 10:15:24;;;;;;;11.57;8.75;;;12.20;99.90;;;;;;4960253;28;20035;-59
2022/09/29 10:18:18;;;;;;;13.98;8.40;;;12.30;99.90;;;;;;4959560;28;20574;-58
2022/09/29 10:20:44;;;;;;;12.82;9.70;;;;;;;;;;4943176;28;20117;-59
2022/09/29 10:23:25;;;;;;;14.73;10.68;;;12.50;99.90;;;;;;4959451;28;20039;-59
2022/09/29 10:26:02;;;;;;;14.52;8.95;;;12.50;99.90;;;;;;4962457;28;20542;-59
2022/09/29 10:28:40;;;;;;;13.25;9.02;;;12.50;99.90;;;;;;4960435;28;20066;-59
2022/09/29 10:31:29;;;;;;;13.07;10.45;;;12.60;99.90;;;;;;4955775;28;20038;-58
2022/09/29 10:34:14;;;;;;;12.45;10.02;;;12.70;99.90;;;;;;4947142;28;20210;-58
2022/09/29 10:36:53;;;;;;;13.93;9.10;;;12.70;99.90;;;;;;4959517;28;20039;-58
2022/09/29 10:39:39;;;;;;;13.15;9.02;;;12.80;99.90;;;;;;4954133;28;20042;-59
2022/09/29 10:42:21;;;;;;;14.18;9.25;;;12.80;99.90;;;;;;4957160;28;20426;-59
2022/09/29 10:44:53;;;;;;;13.27;8.90;;;13.00;99.90;;;;;;4956397;28;20234;-59
2022/09/29 10:47:21;;;;;;;12.07;8.02;;;13.00;99.90;;;;;;4957418;28;20027;-59
2022/09/29 10:49:47;;;;;;;12.27;7.85;;;13.10;99.90;;;;;;4961871;28;20653;-59
2022/09/29 10:52:24;;;;;;;11.65;8.23;;;13.00;99.90;;;;;;4958454;28;20034;-59
2022/09/29 10:55:02;;;;;;;12.05;7.88;;;12.90;99.90;;;;;;4959850;28;20046;-58
2022/09/29 10:57:30;;;;;;;12.98;8.10;;;12.80;99.90;;;;;;4960589;28;20486;-58
2022/09/29 10:59:57;;;;;;;12.02;7.43;;;13.10;99.90;;;;;;4960694;28;20047;-58
2022/09/29 11:02:30;;;;;;;12.73;8.63;;;13.10;99.90;;;;;;4962571;28;20069;-58
2022/09/29 11:04:59;;;;;;;12.33;8.27;;;13.10;99.90;;;;;;4956104;28;20692;-59
2022/09/29 11:07:25;;;;;;;12.45;7.93;;;13.20;99.90;;;;;;4958708;28;20045;-59
2022/09/29 11:09:53;;;;;;;11.38;7.68;;;13.10;99.90;;;;;;4955350;28;20038;-59
2022/09/29 11:12:30;;;;;;;14.23;7.63;;;13.20;99.90;;;;;;4953077;28;20515;-59
2022/09/29 11:14:57;;;;;;;11.73;5.53;;;13.40;99.90;;;;;;4955872;28;20474;-60
2022/09/29 11:17:29;;;;;;;10.38;5.03;;;13.30;99.90;;;;;;4960524;28;20380;-58
2022/09/29 11:20:01;;;;;;;9.87;5.40;;;13.40;99.90;;;;;;4953792;28;20061;-59
2022/09/29 11:22:38;;;;;;;9.35;5.10;;;13.40;99.90;;;;;;4961004;28;20074;-59
2022/09/29 11:25:29;;;;;;;9.23;4.72;;;13.40;99.90;;;;;;4954910;28;20035;-59
2022/09/29 11:28:04;;;;;;;6.15;4.50;;;13.50;99.90;;;;;;4958661;28;20137;-58
2022/09/29 11:31:11;;;;;;;7.40;4.78;;;13.30;99.90;;;;;;4957762;28;20102;-59
2022/09/29 11:34:05;;;;;;;9.85;7.22;;;13.30;99.90;;;;;;4876341;29;20033;-58
2022/09/29 11:36:49;;;;;;;13.55;8.52;;;13.40;99.90;;;;;;4947636;28;20578;-58
2022/09/29 11:39:47;;;;;;;13.88;8.70;;;13.50;99.90;;;;;;4949677;28;20042;-59
2022/09/29 11:42:32;;;;;;;13.60;7.75;;;13.60;99.90;;;;;;4959192;28;20031;-57
2022/09/29 11:45:00;;;;;;;13.27;7.30;;;13.60;99.90;;;;;;4961005;28;20190;-59
2022/09/29 11:48:03;;;;;;;9.25;6.28;;;13.70;99.90;;;;;;4958169;28;20037;-58
2022/09/29 11:50:40;;;;;;;8.00;5.50;;;13.60;99.90;;;;;;4956068;28;20035;-58
2022/09/29 11:53:27;;;;;;;6.90;5.00;;;13.60;99.90;;;;;;4955983;28;20548;-57
2022/09/29 11:56:16;;;;;;;7.28;4.65;;;13.60;99.90;;;;;;4948680;28;20133;-58
2022/09/29 11:58:55;;;;;;;8.75;4.80;;;13.80;99.90;;;;;;4960729;28;20065;-59
2022/09/29 12:01:35;;;;;;;7.93;4.40;;;13.90;99.90;;;;;;4962496;28;20121;-58
2022/09/29 12:04:28;;;;;;;9.57;4.75;;;13.90;99.90;;;;;;4965862;28;20041;-59
2022/09/29 12:07:28;;;;;;;9.45;4.80;;;14.00;99.90;;;;;;4955993;28;20042;-57
2022/09/29 12:10:15;;;;;;;7.28;4.97;;;14.10;99.90;;;;;;4960105;28;20559;-58
2022/09/29 12:13:03;;;;;;;10.50;4.70;;;14.20;99.90;;;;;;4952867;28;20747;-58
2022/09/29 12:15:44;;;;;;;6.70;3.65;;;14.20;99.90;;;;;;4950220;28;20035;-58
2022/09/29 12:18:18;;;;;;;4.93;3.45;;;13.60;99.90;;;;;;4963225;28;20037;-58
2022/09/29 12:20:47;;;;;;;7.43;3.72;;;14.00;99.90;;;;;;4955959;28;20061;-58
2022/09/29 12:23:17;;;;;;;5.45;3.42;;;14.10;99.90;;;;;;4955119;28;20028;-58
2022/09/29 12:26:01;;;;;;;6.00;3.78;;;14.10;99.90;;;;;;4959638;28;20643;-58
2022/09/29 12:28:35;;;;;;;10.40;4.53;;;13.90;99.90;;;;;;4956228;28;20041;-58
2022/09/29 12:31:09;;;;;;;11.30;5.22;;;13.90;99.90;;;;;;4953034;28;20150;-58
2022/09/29 12:33:49;;;;;;;7.80;4.20;;;13.90;99.90;;;;;;4950395;28;20050;-57
2022/09/29 12:39:30;;;;;;;6.90;3.97;;;13.90;99.90;;;;;;4955478;28;20152;-58
2022/09/29 12:42:12;;;;;;;8.63;4.13;;;13.70;99.90;;;;;;4952313;28;20146;-58
2022/09/29 12:44:51;;;;;;;7.13;4.20;;;13.70;99.90;;;;;;4952748;28;20038;-58
2022/09/29 12:47:42;;;;;;;9.05;4.38;;;13.70;99.90;;;;;;4955777;28;20031;-58
2022/09/29 12:50:18;;;;;;;5.43;3.80;;;13.70;99.90;;;;;;4953757;28;20038;-59
2022/09/29 12:52:57;;;;;;;4.93;3.55;;;13.70;99.90;;;;;;4948929;28;20039;-59
2022/09/29 12:55:45;;;;;;;5.03;3.35;;;13.60;99.90;;;;;;4950571;28;20101;-58
2022/09/29 12:58:20;;;;;;;7.68;4.22;;;13.50;99.90;;;;;;4955368;28;20045;-58
2022/09/29 13:00:51;;;;;;;8.30;4.18;;;13.50;99.90;;;;;;4952586;28;20027;-59
2022/09/29 13:03:48;;;;;;;5.30;3.33;;;13.40;99.90;;;;;;4950008;28;20555;-59
2022/09/29 13:06:41;;;;;;;6.32;2.83;;;13.50;99.90;;;;;;4952753;28;20039;-58
2022/09/29 13:09:35;;;;;;;6.32;3.25;;;13.60;99.90;;;;;;4949264;28;20151;-59
2022/09/29 13:12:09;;;;;;;8.82;4.25;;;13.60;99.90;;;;;;4954939;28;20039;-58
2022/09/29 13:14:49;;;;;;;7.60;3.45;;;13.70;99.90;;;;;;4947791;28;20030;-58